createdAt,value
2018-07-15T00:01:19.025Z,3.20
2018-07-15T00:03:48.084Z,3.17
2018-07-15T00:06:17.150Z,3.20
2018-07-15T00:08:46.236Z,3.00
2018-07-15T00:11:15.321Z,3.10
2018-07-15T00:13:44.365Z,3.10
2018-07-15T00:16:13.437Z,3.17
2018-07-15T00:18:42.507Z,2.93
2018-07-15T00:21:11.587Z,3.60
2018-07-15T00:23:40.657Z,2.90
2018-07-15T00:26:09.707Z,2.80
2018-07-15T00:28:38.779Z,2.90
2018-07-15T00:31:07.882Z,2.70
2018-07-15T00:33:36.937Z,2.93
2018-07-15T00:36:06.016Z,3.20
2018-07-15T00:38:35.092Z,3.30
2018-07-15T00:41:04.190Z,2.90
2018-07-15T00:43:33.275Z,3.60
2018-07-15T00:46:02.340Z,3.80
2018-07-15T00:48:31.362Z,3.37
2018-07-15T00:51:00.474Z,3.33
2018-07-15T00:53:29.546Z,3.60
2018-07-15T00:55:58.619Z,3.90
2018-07-15T00:58:27.707Z,3.73
2018-07-15T01:01:01.339Z,3.30
2018-07-15T01:03:31.328Z,3.60
2018-07-15T01:06:00.573Z,3.67
2018-07-15T01:08:29.733Z,4.00
2018-07-15T01:10:58.902Z,3.33
2018-07-15T01:13:27.941Z,3.80
2018-07-15T01:16:00.933Z,3.23
2018-07-15T01:18:29.997Z,3.63
2018-07-15T01:20:59.064Z,3.90
2018-07-15T01:23:28.142Z,3.57
2018-07-15T01:25:57.193Z,3.77
2018-07-15T01:28:26.235Z,3.87
2018-07-15T01:30:55.338Z,3.40
2018-07-15T01:33:24.384Z,4.30
2018-07-15T01:35:53.447Z,3.90
2018-07-15T01:38:22.503Z,3.90
2018-07-15T01:40:51.577Z,4.10
2018-07-15T01:43:20.627Z,4.40
2018-07-15T01:45:49.716Z,3.90
2018-07-15T01:48:18.763Z,4.97
2018-07-15T01:50:47.840Z,4.30
2018-07-15T01:53:16.923Z,4.23
2018-07-15T01:55:45.967Z,4.40
2018-07-15T01:58:15.032Z,3.73
2018-07-15T02:00:44.093Z,4.53
2018-07-15T02:03:13.164Z,4.40
2018-07-15T02:05:42.214Z,4.50
2018-07-15T02:08:11.248Z,4.27
2018-07-15T02:10:40.316Z,4.20
2018-07-15T02:13:09.427Z,4.90
2018-07-15T02:15:38.516Z,4.60
2018-07-15T02:18:07.607Z,4.40
2018-07-15T02:20:36.687Z,4.63
2018-07-15T02:23:05.834Z,4.27
2018-07-15T02:25:34.942Z,4.47
2018-07-15T02:28:03.991Z,4.40
2018-07-15T02:30:33.050Z,4.00
2018-07-15T02:33:02.119Z,4.53
2018-07-15T02:35:31.178Z,4.30
2018-07-15T02:38:00.243Z,5.07
2018-07-15T02:40:29.308Z,4.63
2018-07-15T02:42:58.391Z,4.40
2018-07-15T02:45:27.475Z,4.53
2018-07-15T02:47:56.544Z,5.43
2018-07-15T02:50:25.649Z,4.63
2018-07-15T02:52:54.747Z,4.73
2018-07-15T02:55:23.838Z,4.73
2018-07-15T02:57:52.919Z,4.93
2018-07-15T03:00:22.036Z,4.50
2018-07-15T03:02:51.093Z,4.80
2018-07-15T03:05:20.190Z,4.60
2018-07-15T03:07:52.770Z,4.93
2018-07-15T03:10:21.852Z,4.40
2018-07-15T03:12:53.757Z,4.90
2018-07-15T03:15:22.820Z,4.83
2018-07-15T03:17:51.916Z,4.77
2018-07-15T03:20:20.988Z,4.77
2018-07-15T03:22:50.090Z,4.47
2018-07-15T03:25:19.132Z,5.43
2018-07-15T03:27:48.201Z,4.83
2018-07-15T03:30:17.309Z,5.33
2018-07-15T03:32:46.412Z,5.70
2018-07-15T03:35:15.496Z,5.03
2018-07-15T03:37:44.530Z,5.17
2018-07-15T03:40:13.615Z,4.80
2018-07-15T03:42:42.674Z,5.57
2018-07-15T03:45:12.660Z,4.80
2018-07-15T03:47:42.056Z,4.70
2018-07-15T03:50:11.136Z,4.70
2018-07-15T03:52:40.163Z,5.10
2018-07-15T03:55:09.291Z,5.13
2018-07-15T03:57:38.384Z,5.00
2018-07-15T04:00:07.662Z,5.50
2018-07-15T04:02:36.718Z,5.33
2018-07-15T04:05:06.101Z,5.60
2018-07-15T04:07:35.202Z,5.60
2018-07-15T04:10:04.362Z,4.93
2018-07-15T04:12:33.409Z,5.10
2018-07-15T04:15:02.536Z,5.10
2018-07-15T04:17:31.715Z,5.57
2018-07-15T04:20:00.807Z,5.33
2018-07-15T04:22:29.850Z,5.27
2018-07-15T04:24:58.994Z,5.23
2018-07-15T04:27:28.032Z,4.87
2018-07-15T04:29:57.092Z,5.47
2018-07-15T04:32:26.195Z,5.17
2018-07-15T04:34:55.260Z,5.43
2018-07-15T04:37:24.379Z,5.60
2018-07-15T04:39:53.454Z,5.00
2018-07-15T04:42:26.272Z,5.13
2018-07-15T04:44:55.313Z,5.20
2018-07-15T04:47:24.378Z,5.27
2018-07-15T04:49:53.475Z,4.97
2018-07-15T04:52:22.553Z,5.40
2018-07-15T04:54:51.568Z,5.27
2018-07-15T04:57:20.656Z,5.43
2018-07-15T04:59:49.736Z,5.43
2018-07-15T05:02:18.788Z,5.33
2018-07-15T05:04:47.848Z,5.33
2018-07-15T05:07:16.939Z,5.10
2018-07-15T05:09:45.999Z,5.53
2018-07-15T05:12:15.091Z,5.00
2018-07-15T05:14:44.149Z,5.83
2018-07-15T05:17:13.251Z,5.20
2018-07-15T05:19:57.011Z,5.30
2018-07-15T05:22:28.936Z,5.20
2018-07-15T05:24:58.033Z,5.80
2018-07-15T05:27:27.130Z,5.50
2018-07-15T05:29:56.199Z,5.53
2018-07-15T05:32:25.299Z,5.57
2018-07-15T05:34:54.410Z,6.07
2018-07-15T05:37:23.517Z,5.47
2018-07-15T05:39:52.563Z,5.93
2018-07-15T05:42:21.610Z,4.80
2018-07-15T05:44:50.758Z,5.20
2018-07-15T05:47:19.929Z,5.70
2018-07-15T05:49:48.973Z,5.50
2018-07-15T05:52:18.049Z,5.57
2018-07-15T05:54:47.152Z,6.37
2018-07-15T05:57:16.224Z,5.20
2018-07-15T05:59:45.302Z,5.63
2018-07-15T06:02:14.363Z,5.47
2018-07-15T06:04:43.447Z,5.40
2018-07-15T06:07:12.559Z,5.10
2018-07-15T06:09:41.625Z,5.20
2018-07-15T06:12:10.742Z,5.70
2018-07-15T06:14:39.809Z,5.87
2018-07-15T06:17:08.940Z,8.50
2018-07-15T06:19:37.980Z,5.83
2018-07-15T06:22:07.095Z,5.27
2018-07-15T06:24:36.203Z,5.20
2018-07-15T06:27:05.350Z,5.73
2018-07-15T06:29:34.400Z,5.57
2018-07-15T06:32:03.442Z,5.20
2018-07-15T06:34:32.500Z,4.73
2018-07-15T06:37:01.748Z,5.27
2018-07-15T06:39:30.795Z,5.17
2018-07-15T06:42:00.243Z,5.33
2018-07-15T06:44:29.354Z,5.20
2018-07-15T06:46:58.419Z,4.97
2018-07-15T06:49:27.485Z,4.90
2018-07-15T06:51:56.569Z,4.93
2018-07-15T06:54:25.623Z,4.63
2018-07-15T06:56:54.753Z,4.80
2018-07-15T06:59:23.828Z,4.00
2018-07-15T07:01:52.887Z,4.50
2018-07-15T07:04:21.970Z,4.20
2018-07-15T07:06:51.125Z,4.03
2018-07-15T07:09:20.265Z,3.97
2018-07-15T07:11:49.396Z,3.67
2018-07-15T07:14:18.535Z,4.43
2018-07-15T07:16:47.645Z,3.70
2018-07-15T07:19:16.764Z,4.20
2018-07-15T07:21:46.274Z,4.17
2018-07-15T07:24:15.787Z,4.70
2018-07-15T07:26:45.310Z,3.53
2018-07-15T07:29:14.750Z,3.33
2018-07-15T07:31:44.227Z,3.00
2018-07-15T07:34:13.305Z,3.40
2018-07-15T07:36:42.553Z,4.30
2018-07-15T07:39:11.590Z,4.20
2018-07-15T07:41:41.759Z,3.20
2018-07-15T07:44:26.553Z,3.50
2018-07-15T07:46:59.241Z,2.60
2018-07-15T07:49:28.265Z,2.00
2018-07-15T07:51:57.369Z,2.27
2018-07-15T07:54:26.450Z,2.20
2018-07-15T07:56:55.541Z,2.03
2018-07-15T07:59:24.601Z,1.90
2018-07-15T08:01:53.715Z,1.80
2018-07-15T08:04:22.730Z,3.27
2018-07-15T08:06:51.825Z,1.73
2018-07-15T08:09:20.934Z,1.60
2018-07-15T08:11:49.986Z,1.90
2018-07-15T08:14:19.080Z,2.10
2018-07-15T08:16:48.197Z,2.50
2018-07-15T08:19:17.382Z,1.70
2018-07-15T08:21:46.443Z,1.53
2018-07-15T08:24:15.561Z,1.50
2018-07-15T08:26:44.693Z,1.30
2018-07-15T08:29:20.006Z,1.30
2018-07-15T08:31:49.077Z,1.40
2018-07-15T08:34:18.178Z,1.77
2018-07-15T08:36:47.273Z,1.50
2018-07-15T08:39:16.332Z,1.60
2018-07-15T08:41:45.426Z,1.80
2018-07-15T08:44:14.488Z,1.60
2018-07-15T08:46:43.767Z,1.63
2018-07-15T08:49:13.191Z,1.40
2018-07-15T08:51:42.499Z,1.73
2018-07-15T08:54:11.685Z,1.40
2018-07-15T08:56:40.972Z,1.53
2018-07-15T08:59:10.134Z,1.90
2018-07-15T09:01:39.256Z,2.10
2018-07-15T09:04:08.370Z,1.60
2018-07-15T09:06:37.675Z,1.80
2018-07-15T09:09:07.077Z,1.97
2018-07-15T09:11:36.157Z,1.80
2018-07-15T09:14:05.256Z,1.90
2018-07-15T09:16:34.367Z,1.67
2018-07-15T09:19:03.540Z,1.77
2018-07-15T09:21:32.867Z,1.90
2018-07-15T09:24:02.104Z,1.50
2018-07-15T09:26:31.200Z,1.90
2018-07-15T09:29:04.522Z,1.47
2018-07-15T09:31:33.808Z,1.80
2018-07-15T09:34:03.738Z,1.30
2018-07-15T09:36:32.830Z,1.50
2018-07-15T09:39:02.100Z,1.30
2018-07-15T09:41:31.318Z,1.37
2018-07-15T09:44:00.381Z,1.40
2018-07-15T09:46:30.205Z,1.50
2018-07-15T09:48:59.385Z,1.50
2018-07-15T09:51:28.493Z,1.43
2018-07-15T09:53:57.658Z,1.20
2018-07-15T09:56:26.706Z,1.20
2018-07-15T09:58:56.011Z,1.40
2018-07-15T10:01:25.065Z,1.60
2018-07-15T10:03:54.132Z,1.57
2018-07-15T10:06:23.218Z,1.70
2018-07-15T10:08:52.315Z,2.00
2018-07-15T10:11:21.495Z,1.80
2018-07-15T10:13:50.717Z,1.70
2018-07-15T10:16:19.805Z,1.77
2018-07-15T10:18:48.882Z,2.47
2018-07-15T10:21:18.079Z,9.77
2018-07-15T10:23:47.159Z,2.20
2018-07-15T10:26:16.244Z,2.20
2018-07-15T10:28:45.345Z,2.10
2018-07-15T10:31:14.411Z,2.20
2018-07-15T10:33:43.460Z,1.97
2018-07-15T10:36:12.576Z,2.20
2018-07-15T10:38:41.764Z,2.30
2018-07-15T10:41:11.089Z,2.40
2018-07-15T10:43:40.214Z,2.07
2018-07-15T10:46:09.301Z,2.43
2018-07-15T10:48:38.388Z,2.63
2018-07-15T10:51:07.470Z,1.72
2018-07-15T10:53:36.539Z,1.80
2018-07-15T10:56:05.652Z,2.07
2018-07-15T10:58:34.900Z,2.00
2018-07-15T11:01:04.030Z,2.02
2018-07-15T11:03:33.160Z,1.80
2018-07-15T11:06:02.321Z,2.90
2018-07-15T11:08:31.356Z,2.12
2018-07-15T11:11:00.481Z,2.00
2018-07-15T11:13:29.612Z,2.40
2018-07-15T11:15:58.682Z,3.08
2018-07-15T11:18:27.734Z,1.98
2018-07-15T11:20:56.815Z,2.60
2018-07-15T11:23:25.886Z,2.40
2018-07-15T11:25:54.969Z,3.20
2018-07-15T11:28:24.062Z,2.00
2018-07-15T11:30:53.863Z,2.98
2018-07-15T11:33:22.953Z,1.90
2018-07-15T11:35:52.015Z,3.08
2018-07-15T11:38:21.095Z,1.60
2018-07-15T11:40:51.060Z,1.75
2018-07-15T11:43:20.140Z,1.47
2018-07-15T11:45:49.227Z,2.33
2018-07-15T11:48:18.348Z,1.80
2018-07-15T11:50:47.390Z,3.00
2018-07-15T11:53:16.447Z,1.62
2018-07-15T11:55:45.968Z,1.57
2018-07-15T11:58:15.038Z,1.70
2018-07-15T12:00:44.108Z,2.10
2018-07-15T12:03:13.179Z,1.80
2018-07-15T12:05:42.344Z,1.72
2018-07-15T12:08:11.384Z,1.50
2018-07-15T12:10:40.887Z,1.80
2018-07-15T12:19:04.637Z,1.60
2018-07-15T12:21:34.320Z,1.67
2018-07-15T12:24:04.148Z,1.87
2018-07-15T12:26:33.874Z,1.87
2018-07-15T12:29:03.052Z,1.82
2018-07-15T12:31:32.147Z,1.45
2018-07-15T12:34:01.972Z,1.45
2018-07-15T12:36:31.659Z,1.75
2018-07-15T12:39:01.471Z,1.57
2018-07-15T12:41:30.525Z,1.20
2018-07-15T12:44:00.005Z,1.40
2018-07-15T12:46:38.524Z,1.60
2018-07-15T12:49:17.242Z,1.77
2018-07-15T12:51:49.100Z,2.00
2018-07-15T12:54:19.403Z,1.57
2018-07-15T12:56:48.930Z,1.72
2018-07-15T12:59:18.009Z,1.67
2018-07-15T13:01:47.106Z,1.80
2018-07-15T13:08:04.465Z,1.50
2018-07-15T13:10:41.410Z,1.60
2018-07-15T13:13:10.488Z,1.30
2018-07-15T13:15:39.562Z,1.32
2018-07-15T13:18:08.728Z,1.80
2018-07-15T13:20:37.883Z,1.32
2018-07-15T13:23:07.016Z,1.55
2018-07-15T13:25:36.679Z,1.65
2018-07-15T13:28:07.106Z,1.85
2018-07-15T13:30:37.803Z,1.40
2018-07-15T13:33:08.350Z,1.50
2018-07-15T13:35:38.176Z,1.57
2018-07-15T13:38:08.313Z,1.10
2018-07-15T13:40:37.688Z,1.42
2018-07-15T13:43:07.014Z,1.15
2018-07-15T13:45:36.478Z,1.47
2018-07-15T13:48:05.928Z,1.30
2018-07-15T13:50:36.788Z,1.22
2018-07-15T13:53:06.988Z,1.47
2018-07-15T13:55:37.955Z,1.30
2018-07-15T13:58:07.931Z,1.37
2018-07-15T14:00:37.908Z,1.55
2018-07-15T14:03:07.532Z,1.07
2018-07-15T14:05:37.348Z,1.20
2018-07-15T14:08:09.593Z,1.90
2018-07-15T14:10:38.746Z,1.60
2018-07-15T14:13:08.013Z,1.37
2018-07-15T14:15:37.333Z,1.60
2018-07-15T14:18:06.637Z,1.20
2018-07-15T14:20:35.769Z,1.30
2018-07-15T14:23:04.905Z,1.30
2018-07-15T14:25:34.095Z,1.32
2018-07-15T14:28:03.244Z,1.30
2018-07-15T14:30:32.250Z,1.52
2018-07-15T14:33:01.296Z,1.30
2018-07-15T14:35:30.440Z,1.20
2018-07-15T14:37:59.541Z,2.92
2018-07-15T14:40:28.648Z,1.57
2018-07-15T14:42:57.774Z,1.42
2018-07-15T14:45:26.882Z,1.40
2018-07-15T14:47:55.986Z,1.65
2018-07-15T14:50:25.093Z,1.70
2018-07-15T14:52:54.322Z,1.30
2018-07-15T14:55:23.511Z,1.20
2018-07-15T14:57:52.632Z,1.35
2018-07-15T15:00:21.739Z,1.45
2018-07-15T15:02:51.038Z,1.50
2018-07-15T15:05:20.514Z,2.80
2018-07-15T15:07:49.699Z,1.60
2018-07-15T15:10:18.924Z,1.80
2018-07-15T15:12:48.068Z,1.00
2018-07-15T15:15:17.267Z,1.37
2018-07-15T15:17:46.306Z,1.30
2018-07-15T15:20:15.421Z,1.27
2018-07-15T15:22:44.642Z,1.27
2018-07-15T15:25:14.819Z,1.22
2018-07-15T15:27:43.957Z,1.80
2018-07-15T15:30:13.230Z,1.77
2018-07-15T15:32:42.299Z,1.40
2018-07-15T15:35:11.505Z,1.20
2018-07-15T15:37:42.741Z,1.25
2018-07-15T15:40:11.778Z,1.20
2018-07-15T15:42:41.023Z,1.52
2018-07-15T15:45:10.142Z,1.20
2018-07-15T15:47:39.241Z,1.17
2018-07-15T15:50:08.696Z,1.27
2018-07-15T15:52:37.792Z,1.12
2018-07-15T15:55:07.148Z,1.37
2018-07-15T15:57:36.417Z,1.25
2018-07-15T16:00:05.844Z,1.45
2018-07-15T16:02:34.975Z,1.45
2018-07-15T16:05:04.059Z,2.22
2018-07-15T16:07:34.730Z,1.52
2018-07-15T16:10:04.137Z,1.52
2018-07-15T16:12:33.226Z,1.20
2018-07-15T16:15:02.818Z,1.17
2018-07-15T16:17:31.990Z,2.05
2018-07-15T16:20:01.068Z,1.25
2018-07-15T16:22:30.646Z,1.10
2018-07-15T16:24:59.728Z,1.32
2018-07-15T16:27:29.545Z,1.27
2018-07-15T16:29:58.843Z,1.37
2018-07-15T16:32:28.291Z,1.57
2018-07-15T16:34:57.356Z,1.12
2018-07-15T16:37:26.780Z,1.12
2018-07-15T16:39:55.877Z,1.45
2018-07-15T16:42:24.948Z,1.52
2018-07-15T16:44:54.235Z,1.17
2018-07-15T16:47:23.308Z,1.30
2018-07-15T16:49:53.299Z,1.25
2018-07-15T16:52:22.371Z,1.32
2018-07-15T16:54:51.463Z,1.25
2018-07-15T16:57:20.747Z,1.50
2018-07-15T16:59:49.932Z,1.30
2018-07-15T17:02:19.005Z,1.50
2018-07-15T17:04:48.429Z,1.62
2018-07-15T17:07:19.475Z,1.40
2018-07-15T17:09:49.197Z,2.08
2018-07-15T17:12:18.313Z,3.85
2018-07-15T17:14:47.490Z,2.72
2018-07-15T17:17:16.709Z,1.80
2018-07-15T17:19:45.777Z,1.10
2018-07-15T17:22:14.841Z,1.82
2018-07-15T17:24:44.157Z,1.47
2018-07-15T17:27:14.116Z,2.87
2018-07-15T17:29:43.298Z,1.95
2018-07-15T17:32:12.724Z,1.50
2018-07-15T17:34:41.823Z,2.25
2018-07-15T17:37:10.984Z,1.80
2018-07-15T17:39:40.297Z,2.50
2018-07-15T17:42:09.345Z,5.60
2018-07-15T17:44:38.464Z,2.42
2018-07-15T17:47:08.095Z,3.02
2018-07-15T17:49:37.194Z,2.10
2018-07-15T17:52:06.307Z,2.10
2018-07-15T17:54:35.645Z,1.90
2018-07-15T17:57:04.924Z,1.27
2018-07-15T17:59:34.334Z,1.80
2018-07-15T18:02:03.405Z,1.62
2018-07-15T18:04:32.525Z,2.12
2018-07-15T18:07:01.664Z,3.83
2018-07-15T18:09:30.945Z,1.32
2018-07-15T18:12:00.418Z,1.82
2018-07-15T18:14:29.504Z,1.90
2018-07-15T18:16:58.881Z,2.10
2018-07-15T18:19:28.215Z,1.77
2018-07-15T18:21:57.296Z,2.00
2018-07-15T18:24:26.837Z,1.47
2018-07-15T18:26:55.918Z,1.17
2018-07-15T18:29:25.274Z,2.60
2018-07-15T18:31:54.690Z,1.10
2018-07-15T18:34:23.824Z,1.20
2018-07-15T18:36:52.893Z,1.50
2018-07-15T18:39:22.007Z,1.27
2018-07-15T18:41:51.121Z,1.20
2018-07-15T18:44:20.198Z,1.30
2018-07-15T18:46:56.171Z,1.00
2018-07-15T18:49:25.285Z,1.55
2018-07-15T18:51:54.361Z,2.10
2018-07-15T18:54:23.576Z,4.15
2018-07-15T18:56:52.977Z,2.37
2018-07-15T18:59:22.697Z,1.60
2018-07-15T19:01:52.275Z,1.50
2018-07-15T19:04:21.399Z,1.72
2018-07-15T19:06:50.564Z,2.45
2018-07-15T19:09:20.073Z,2.47
2018-07-15T19:11:49.214Z,2.45
2018-07-15T19:14:19.057Z,2.30
2018-07-15T19:16:48.129Z,1.12
2018-07-15T19:19:17.693Z,2.12
2018-07-15T19:21:47.211Z,2.17
2018-07-15T19:24:23.034Z,2.02
2018-07-15T19:26:52.546Z,2.62
2018-07-15T19:29:21.676Z,3.67
2018-07-15T19:31:51.043Z,4.08
2018-07-15T19:34:20.884Z,3.90
2018-07-15T19:36:49.989Z,2.87
2018-07-15T19:39:19.393Z,3.10
2018-07-15T19:41:48.482Z,2.90
2018-07-15T19:44:17.766Z,3.42
2018-07-15T19:46:47.000Z,2.40
2018-07-15T19:49:16.069Z,2.08
2018-07-15T19:51:45.120Z,2.10
2018-07-15T19:54:14.318Z,2.10
2018-07-15T19:56:43.555Z,1.87
2018-07-15T19:59:12.619Z,2.00
2018-07-15T20:01:42.207Z,2.77
2018-07-15T20:04:11.507Z,2.83
2018-07-15T20:06:40.645Z,2.60
2018-07-15T20:09:09.700Z,2.90
2018-07-15T20:11:39.036Z,1.70
2018-07-15T20:14:08.140Z,1.32
2018-07-15T20:16:37.315Z,1.80
2018-07-15T20:19:06.725Z,1.37
2018-07-15T20:21:35.940Z,1.40
2018-07-15T20:24:05.045Z,1.67
2018-07-15T20:26:34.444Z,1.50
2018-07-15T20:29:03.512Z,1.60
2018-07-15T20:31:32.621Z,1.50
2018-07-15T20:34:01.984Z,1.87
2018-07-15T20:36:31.048Z,2.00
2018-07-15T20:39:00.114Z,2.08
2018-07-15T20:41:29.409Z,2.30
2018-07-15T20:43:58.479Z,2.53
2018-07-15T20:46:27.621Z,2.90
2018-07-15T20:48:56.804Z,2.90
2018-07-15T20:51:25.884Z,2.83
2018-07-15T20:53:55.152Z,2.90
2018-07-15T20:56:24.597Z,2.70
2018-07-15T20:58:53.638Z,2.90
2018-07-15T21:01:22.704Z,3.35
2018-07-15T21:03:51.526Z,2.90
2018-07-15T21:06:20.572Z,1.90
2018-07-15T21:08:49.753Z,2.05
2018-07-15T21:11:18.824Z,2.00
2018-07-15T21:13:47.880Z,2.60
2018-07-15T21:16:17.274Z,3.40
2018-07-15T21:18:46.323Z,3.80
2018-07-15T21:21:15.756Z,3.83
2018-07-15T21:23:44.810Z,3.30
2018-07-15T21:26:13.839Z,3.47
2018-07-15T21:28:42.929Z,3.50
2018-07-15T21:31:12.007Z,3.63
2018-07-15T21:33:41.270Z,2.60
2018-07-15T21:36:10.749Z,2.30
2018-07-15T21:38:39.816Z,2.17
2018-07-15T21:41:08.907Z,2.50
2018-07-15T21:43:38.126Z,1.53
2018-07-15T21:46:07.529Z,1.43
2018-07-15T21:48:36.582Z,1.90
2018-07-15T21:51:05.824Z,1.30
2018-07-15T21:53:35.127Z,1.37
2018-07-15T21:56:04.216Z,1.53
2018-07-15T21:58:33.630Z,1.50
2018-07-15T22:01:02.938Z,1.20
2018-07-15T22:03:32.038Z,1.33
2018-07-15T22:06:00.876Z,1.20
2018-07-15T22:08:41.790Z,1.60
2018-07-15T22:11:10.885Z,1.47
2018-07-15T22:13:39.962Z,1.30
2018-07-15T22:16:09.733Z,1.80
2018-07-15T22:18:38.861Z,1.87
2018-07-15T22:21:07.996Z,1.53
2018-07-15T22:23:37.174Z,1.40
2018-07-15T22:26:06.280Z,1.50
2018-07-15T22:28:35.332Z,1.40
2018-07-15T22:31:04.731Z,1.33
2018-07-15T22:33:33.971Z,1.30
2018-07-15T22:36:03.030Z,1.43
2018-07-15T22:38:32.662Z,1.60
2018-07-15T22:41:01.719Z,1.57
2018-07-15T22:43:30.790Z,1.93
2018-07-15T22:46:00.068Z,1.77
2018-07-15T22:48:29.289Z,1.37
2018-07-15T22:50:58.377Z,1.10
2018-07-15T22:53:27.635Z,1.17
2018-07-15T22:55:56.742Z,1.23
2018-07-15T22:58:25.949Z,1.30
2018-07-15T23:00:55.259Z,1.40
2018-07-15T23:03:24.666Z,1.27
2018-07-15T23:06:05.017Z,1.10
2018-07-15T23:08:34.345Z,1.23
2018-07-15T23:11:03.424Z,1.00
2018-07-15T23:13:32.497Z,1.20
2018-07-15T23:16:01.785Z,1.40
2018-07-15T23:18:30.855Z,1.10
2018-07-15T23:21:00.048Z,1.20
2018-07-15T23:23:29.438Z,1.50
2018-07-15T23:25:58.512Z,1.10
2018-07-15T23:28:27.614Z,1.60
2018-07-15T23:30:56.985Z,1.40
2018-07-15T23:33:26.354Z,1.63
2018-07-15T23:35:55.421Z,1.33
2018-07-15T23:38:24.494Z,1.40
2018-07-15T23:40:53.657Z,2.50
2018-07-15T23:43:23.114Z,1.63
2018-07-15T23:45:52.173Z,1.60
2018-07-15T23:48:21.235Z,1.33
2018-07-15T23:50:50.536Z,1.50
2018-07-15T23:53:19.612Z,1.77
2018-07-15T23:55:48.688Z,1.63
2018-07-15T23:58:17.974Z,1.57
